This is the latest recevied weather packets stored in our database for station/object DN9EM-1. If no packets are shown the sender has not sent any weather packets the latest 10 day(s).
| Time | Temp. | Humidity | Pressure | Rain* | Wind** | Luminosity | Snow |
|---|---|---|---|---|---|---|---|
| 1778044574 | 8.89° C | 62% | 1010.5 hPa | 0 mm | - | - | - |
| 1778043971 | 8.89° C | 61% | 1010.4 hPa | 0 mm | - | - | - |
| 1778043363 | 8.89° C | 63% | 1010.5 hPa | 0 mm | - | - | - |
| 1778042761 | 8.89° C | 63% | 1010.4 hPa | 0 mm | - | - | - |
| 1778042152 | 8.89° C | 65% | 1010.6 hPa | 0 mm | - | - | - |
| 1778041550 | 8.89° C | 67% | 1010.6 hPa | 0 mm | - | - | - |
| 1778040947 | 8.33° C | 68% | 1010.5 hPa | 0 mm | - | - | - |
| 1778040339 | 8.33° C | 71% | 1010.4 hPa | 0 mm | - | - | - |
| 1778039737 | 7.22° C | 79% | 1010.4 hPa | 0 mm | - | - | - |
| 1778039128 | 7.78° C | 79% | 1010.5 hPa | 0 mm | - | - | - |
| 1778038526 | 7.78° C | 79% | 1010.4 hPa | 0 mm | - | - | - |
| 1778037923 | 7.78° C | 80% | 1010.5 hPa | 0 mm | - | - | - |
| 1778037315 | 7.22° C | 82% | 1010.6 hPa | 0 mm | - | - | - |
| 1778036773 | 7.22° C | 83% | 1010.6 hPa | 0 mm | - | - | - |
| 1778036165 | 7.22° C | 82% | 1010.6 hPa | 0 mm | - | - | - |
| 1778035562 | 7.22° C | 84% | 1010.6 hPa | 0 mm | - | - | - |
| 1778034960 | 7.22° C | 84% | 1010.8 hPa | 0 mm | - | - | - |
| 1778034352 | 7.22° C | 83% | 1010.8 hPa | 0 mm | - | - | - |
| 1778033749 | 7.22° C | 83% | 1011.1 hPa | 0 mm | - | - | - |
| 1778033141 | 6.67° C | 83% | 1011.3 hPa | 0 mm | - | - | - |
| 1778032538 | 7.22° C | 82% | 1011.2 hPa | 0 mm | - | - | - |
| 1778031936 | 7.78° C | 80% | 1011.3 hPa | 0 mm | - | - | - |
| 1778031328 | 7.78° C | 79% | 1011.2 hPa | 0 mm | - | - | - |
| 1778030725 | 7.78° C | 80% | 1011.2 hPa | 0 mm | - | - | - |
| 1778030117 | 7.78° C | 79% | 1011.2 hPa | 0 mm | - | - | - |
* Rain latest hour (hover to see other rain measurements)
** Current wind speed in m/s (hover to see current wind gust speed)